createdAt,value
2022-09-28T00:01:27.474Z,12.10
2022-09-28T00:03:29.174Z,12.10
2022-09-28T00:05:32.725Z,12.10
2022-09-28T00:07:34.717Z,12.10
2022-09-28T00:09:36.378Z,12.10
2022-09-28T00:11:38.337Z,12.10
2022-09-28T00:13:41.066Z,12.10
2022-09-28T00:15:42.718Z,12.20
2022-09-28T00:17:47.289Z,12.10
2022-09-28T00:19:49.615Z,12.20
2022-09-28T00:21:51.243Z,12.20
2022-09-28T00:24:16.757Z,12.20
2022-09-28T00:26:18.381Z,12.20
2022-09-28T00:28:22.291Z,12.20
2022-09-28T00:30:23.974Z,12.20
2022-09-28T00:32:26.535Z,12.10
2022-09-28T00:34:33.696Z,12.10
2022-09-28T00:36:35.646Z,12.10
2022-09-28T00:38:40.540Z,12.10
2022-09-28T00:40:42.227Z,12.10
2022-09-28T00:42:44.969Z,12.20
2022-09-28T00:44:51.869Z,12.20
2022-09-28T00:47:23.718Z,12.30
2022-09-28T00:49:36.762Z,12.20
2022-09-28T00:51:41.057Z,12.20
2022-09-28T00:53:44.477Z,12.20
2022-09-28T00:56:07.415Z,12.20
2022-09-28T00:58:12.478Z,12.20
2022-09-28T01:00:14.864Z,12.10
2022-09-28T01:02:18.678Z,12.20
2022-09-28T01:04:24.194Z,12.20
2022-09-28T01:06:33.091Z,12.20
2022-09-28T01:08:37.125Z,12.20
2022-09-28T01:10:43.397Z,12.20
2022-09-28T01:12:45.069Z,12.20
2022-09-28T01:14:47.965Z,12.10
2022-09-28T01:17:04.068Z,12.20
2022-09-28T01:19:37.606Z,12.20
2022-09-28T01:22:08.140Z,12.20
2022-09-28T01:24:18.543Z,12.20
2022-09-28T01:26:38.820Z,12.20
2022-09-28T01:28:53.991Z,12.20
2022-09-28T01:31:12.698Z,12.20
2022-09-28T01:33:22.213Z,12.20
2022-09-28T01:35:35.632Z,12.10
2022-09-28T01:37:52.166Z,12.10
2022-09-28T01:39:56.861Z,12.10
2022-09-28T01:42:03.081Z,12.10
2022-09-28T01:44:08.663Z,12.10
2022-09-28T01:46:20.126Z,12.10
2022-09-28T01:48:41.578Z,12.10
2022-09-28T01:50:47.412Z,12.10
2022-09-28T01:53:03.417Z,12.10
2022-09-28T01:55:08.209Z,12.10
2022-09-28T01:57:19.656Z,12.10
2022-09-28T01:59:29.442Z,12.10
2022-09-28T02:01:58.882Z,12.20
2022-09-28T02:04:12.139Z,12.20
2022-09-28T02:06:20.014Z,12.10
2022-09-28T02:08:31.580Z,12.10
2022-09-28T02:10:49.962Z,12.20
2022-09-28T02:12:58.039Z,12.20
2022-09-28T02:15:14.450Z,12.20
2022-09-28T02:17:16.622Z,12.20
2022-09-28T02:19:25.858Z,12.20
2022-09-28T02:21:59.560Z,12.20
2022-09-28T02:24:21.583Z,12.20
2022-09-28T02:26:30.512Z,12.20
2022-09-28T02:28:32.391Z,12.20
2022-09-28T02:30:36.954Z,12.20
2022-09-28T02:32:44.309Z,12.10
2022-09-28T02:34:48.377Z,12.20
2022-09-28T02:36:52.421Z,12.10
2022-09-28T02:38:55.054Z,12.10
2022-09-28T02:41:05.460Z,12.10
2022-09-28T02:43:52.905Z,12.10
2022-09-28T02:46:22.288Z,12.10
2022-09-28T02:49:00.431Z,12.10
2022-09-28T02:51:23.821Z,12.10
2022-09-28T02:53:40.390Z,12.00
2022-09-28T02:56:09.570Z,12.10
2022-09-28T02:58:43.191Z,12.10
2022-09-28T03:00:54.757Z,12.00
2022-09-28T03:03:14.209Z,12.00
2022-09-28T03:05:22.953Z,12.10
2022-09-28T03:07:34.814Z,12.00
2022-09-28T03:09:44.308Z,12.00
2022-09-28T03:11:50.216Z,12.00
2022-09-28T03:13:53.089Z,12.00
2022-09-28T03:16:17.958Z,12.00
2022-09-28T03:18:22.165Z,12.10
2022-09-28T03:20:24.733Z,12.00
2022-09-28T03:22:26.401Z,12.00
2022-09-28T03:24:28.765Z,12.00
2022-09-28T03:26:32.460Z,12.00
2022-09-28T03:28:36.170Z,12.00
2022-09-28T03:30:38.543Z,12.00
2022-09-28T03:32:41.965Z,12.00
2022-09-28T03:34:44.393Z,12.00
2022-09-28T03:36:48.602Z,12.00
2022-09-28T03:38:57.482Z,12.00
2022-09-28T03:41:00.602Z,12.00
2022-09-28T03:43:07.556Z,12.00
2022-09-28T03:45:10.013Z,12.00
2022-09-28T03:47:11.907Z,12.00
2022-09-28T03:49:16.401Z,12.00
2022-09-28T03:51:18.102Z,12.00
2022-09-28T03:53:22.541Z,12.00
2022-09-28T03:55:24.273Z,12.00
2022-09-28T03:57:28.217Z,11.90
2022-09-28T03:59:33.573Z,11.90
2022-09-28T04:01:38.588Z,11.90
2022-09-28T04:03:40.370Z,11.90
2022-09-28T04:05:52.645Z,11.90
2022-09-28T04:07:57.728Z,11.90
2022-09-28T04:09:59.393Z,11.90
2022-09-28T04:12:04.596Z,11.90
2022-09-28T04:14:07.826Z,11.80
2022-09-28T04:16:11.451Z,11.80
2022-09-28T04:18:15.255Z,11.70
2022-09-28T04:21:03.593Z,11.70
2022-09-28T04:23:07.856Z,11.70
2022-09-28T04:25:09.709Z,11.70
2022-09-28T04:27:30.580Z,11.60
2022-09-28T04:29:32.381Z,11.60
2022-09-28T04:31:44.068Z,11.60
2022-09-28T04:33:45.932Z,11.60
2022-09-28T04:35:47.659Z,11.50
2022-09-28T04:37:49.315Z,11.50
2022-09-28T04:39:52.527Z,11.50
2022-09-28T04:41:56.698Z,11.50
2022-09-28T04:43:58.533Z,11.50
2022-09-28T04:46:07.475Z,11.50
2022-09-28T04:48:17.568Z,11.50
2022-09-28T04:50:37.642Z,11.50
2022-09-28T04:52:50.913Z,11.50
2022-09-28T04:54:52.597Z,11.50
2022-09-28T04:56:55.301Z,11.40
2022-09-28T04:58:57.076Z,11.40
2022-09-28T05:01:01.305Z,11.40
2022-09-28T05:03:26.960Z,11.40
2022-09-28T05:05:59.149Z,11.40
2022-09-28T05:08:13.264Z,11.40
2022-09-28T05:10:15.360Z,11.40
2022-09-28T05:12:19.448Z,11.40
2022-09-28T05:14:22.511Z,11.40
2022-09-28T05:16:26.288Z,11.40
2022-09-28T05:18:47.292Z,11.40
2022-09-28T05:20:49.201Z,11.40
2022-09-28T05:22:53.158Z,11.40
2022-09-28T05:24:54.946Z,11.40
2022-09-28T05:26:57.038Z,11.30
2022-09-28T05:28:58.734Z,11.30
2022-09-28T05:31:18.930Z,11.30
2022-09-28T05:33:53.312Z,11.40
2022-09-28T05:36:01.272Z,11.30
2022-09-28T05:38:05.440Z,11.30
2022-09-28T05:40:08.506Z,11.30
2022-09-28T05:42:10.199Z,11.30
2022-09-28T05:44:14.491Z,11.30
2022-09-28T05:46:17.417Z,11.30
2022-09-28T05:48:19.333Z,11.30
2022-09-28T05:50:21.442Z,11.20
2022-09-28T05:52:23.578Z,11.20
2022-09-28T05:54:28.158Z,11.20
2022-09-28T05:56:30.916Z,11.20
2022-09-28T05:58:34.599Z,11.20
2022-09-28T06:00:37.868Z,11.20
2022-09-28T06:02:40.148Z,11.20
2022-09-28T06:04:44.332Z,11.20
2022-09-28T06:06:46.003Z,11.20
2022-09-28T06:08:48.439Z,11.20
2022-09-28T06:11:04.724Z,11.20
2022-09-28T06:13:07.067Z,11.20
2022-09-28T06:15:09.803Z,11.20
2022-09-28T06:17:11.521Z,11.20
2022-09-28T06:19:13.275Z,11.20
2022-09-28T06:21:44.269Z,11.30
2022-09-28T06:23:49.143Z,11.30
2022-09-28T06:25:52.689Z,11.30
2022-09-28T06:28:04.969Z,11.30
2022-09-28T06:30:07.055Z,11.30
2022-09-28T06:32:09.191Z,11.30
2022-09-28T06:34:13.553Z,11.40
2022-09-28T06:36:18.066Z,11.30
2022-09-28T06:38:21.220Z,11.40
2022-09-28T06:40:24.774Z,11.40
2022-09-28T06:42:26.796Z,11.40
2022-09-28T06:44:59.166Z,11.50
2022-09-28T06:47:19.040Z,11.50
2022-09-28T06:49:39.606Z,11.50
2022-09-28T06:52:16.638Z,11.50
2022-09-28T06:54:40.487Z,11.50
2022-09-28T06:57:17.681Z,11.60
2022-09-28T06:59:20.235Z,11.60
2022-09-28T07:01:24.589Z,11.60
2022-09-28T07:03:41.818Z,11.70
2022-09-28T07:06:12.052Z,11.70
2022-09-28T07:09:07.914Z,11.70
2022-09-28T07:11:39.965Z,11.70
2022-09-28T07:14:07.566Z,11.80
2022-09-28T07:16:09.481Z,11.80
2022-09-28T07:18:12.441Z,11.80
2022-09-28T07:20:19.355Z,11.80
2022-09-28T07:22:39.691Z,11.80
2022-09-28T07:24:44.558Z,11.80
2022-09-28T07:27:18.291Z,11.80
2022-09-28T07:29:38.715Z,11.90
2022-09-28T07:31:57.642Z,11.90
2022-09-28T07:34:17.397Z,11.90
2022-09-28T07:36:42.348Z,11.90
2022-09-28T07:38:44.349Z,11.90
2022-09-28T07:41:04.601Z,11.90
2022-09-28T07:43:07.909Z,11.90
2022-09-28T07:45:15.245Z,12.00
2022-09-28T07:47:18.792Z,12.00
2022-09-28T07:49:39.193Z,12.00
2022-09-28T07:52:02.122Z,12.00
2022-09-28T07:54:03.986Z,12.00
2022-09-28T07:56:26.947Z,12.10
2022-09-28T07:58:53.621Z,12.10
2022-09-28T08:01:17.602Z,12.20
2022-09-28T08:03:22.657Z,12.20
2022-09-28T08:05:24.540Z,12.30
2022-09-28T08:07:26.464Z,12.30
2022-09-28T08:09:37.398Z,12.30
2022-09-28T08:12:11.512Z,12.40
2022-09-28T08:14:33.540Z,12.40
2022-09-28T08:16:47.578Z,12.40
2022-09-28T08:19:02.121Z,12.50
2022-09-28T08:21:24.164Z,12.50
2022-09-28T08:23:27.270Z,12.50
2022-09-28T08:25:29.246Z,12.50
2022-09-28T08:27:31.177Z,12.60
2022-09-28T08:29:33.081Z,12.70
2022-09-28T08:31:58.310Z,12.70
2022-09-28T08:34:08.542Z,12.80
2022-09-28T08:36:28.866Z,12.90
2022-09-28T08:38:36.492Z,13.00
2022-09-28T08:41:59.948Z,13.00
2022-09-28T08:44:26.167Z,13.10
2022-09-28T08:46:49.384Z,13.20
2022-09-28T08:49:25.561Z,13.20
2022-09-28T08:51:59.251Z,13.30
2022-09-28T08:54:45.097Z,13.30
2022-09-28T08:57:04.582Z,13.30
2022-09-28T08:59:13.613Z,13.40
2022-09-28T09:01:19.564Z,13.30
2022-09-28T09:03:27.690Z,13.30
2022-09-28T09:06:06.111Z,13.30
2022-09-28T09:08:52.278Z,13.40
2022-09-28T09:11:08.816Z,13.50
2022-09-28T09:13:52.862Z,13.50
2022-09-28T09:16:14.517Z,13.60
2022-09-28T09:18:55.722Z,13.70
2022-09-28T09:21:33.135Z,13.80
2022-09-28T09:23:41.006Z,13.80
2022-09-28T09:25:56.681Z,13.90
2022-09-28T09:28:13.267Z,14.00
2022-09-28T09:30:21.938Z,14.10
2022-09-28T09:32:36.743Z,14.20
2022-09-28T09:34:55.191Z,14.30
2022-09-28T09:37:23.118Z,14.30
2022-09-28T09:40:03.473Z,14.50
2022-09-28T09:42:42.018Z,14.50
2022-09-28T09:45:02.136Z,14.60
2022-09-28T09:47:59.540Z,14.60
2022-09-28T09:50:38.421Z,14.80
2022-09-28T09:52:59.143Z,14.80
2022-09-28T09:55:16.158Z,14.80
2022-09-28T09:57:51.235Z,14.90
2022-09-28T10:00:17.405Z,14.80
2022-09-28T10:02:38.058Z,14.80
2022-09-28T10:05:14.117Z,14.70
2022-09-28T10:07:28.629Z,14.70
2022-09-28T10:09:43.646Z,14.90
2022-09-28T10:11:57.676Z,14.80
2022-09-28T10:14:02.758Z,14.90
2022-09-28T10:16:14.341Z,14.90
2022-09-28T10:18:27.119Z,15.00
2022-09-28T10:20:47.312Z,15.10
2022-09-28T10:23:17.499Z,15.20
2022-09-28T10:25:19.966Z,15.20
2022-09-28T10:27:35.806Z,15.20
2022-09-28T10:29:55.102Z,15.30
2022-09-28T10:31:57.010Z,15.30
2022-09-28T10:34:14.577Z,15.30
2022-09-28T10:36:16.872Z,15.30
2022-09-28T10:38:19.502Z,15.30
2022-09-28T10:41:03.482Z,15.40
2022-09-28T10:43:25.276Z,15.40
2022-09-28T10:45:38.167Z,15.50
2022-09-28T10:47:44.289Z,15.50
2022-09-28T10:49:51.568Z,15.60
2022-09-28T10:51:56.583Z,15.60
2022-09-28T10:54:13.142Z,15.60
2022-09-28T10:56:23.071Z,15.60
2022-09-28T10:58:40.511Z,15.70
2022-09-28T11:00:45.621Z,15.60
2022-09-28T11:02:57.451Z,15.60
2022-09-28T11:05:01.624Z,15.60
2022-09-28T11:07:24.146Z,15.60
2022-09-28T11:09:33.579Z,15.70
2022-09-28T11:11:41.910Z,15.80
2022-09-28T11:13:52.311Z,15.90
2022-09-28T11:16:02.913Z,16.00
2022-09-28T11:18:31.302Z,16.00
2022-09-28T11:20:37.005Z,16.00
2022-09-28T11:22:42.272Z,16.00
2022-09-28T11:24:45.166Z,15.90
2022-09-28T11:26:53.241Z,15.90
2022-09-28T11:28:59.137Z,15.90
2022-09-28T11:31:13.119Z,15.90
2022-09-28T11:33:33.652Z,15.90
2022-09-28T11:36:09.339Z,15.90
2022-09-28T11:38:33.983Z,15.90
2022-09-28T11:41:50.188Z,15.90
2022-09-28T11:43:58.551Z,15.90
2022-09-28T11:46:16.709Z,15.90
2022-09-28T11:48:24.024Z,15.90
2022-09-28T11:50:47.548Z,15.90
2022-09-28T11:53:09.643Z,15.90
2022-09-28T11:55:38.197Z,16.00
2022-09-28T11:57:46.378Z,16.00
2022-09-28T12:00:27.288Z,15.90
2022-09-28T12:02:42.484Z,15.90
2022-09-28T12:05:03.373Z,15.90
2022-09-28T12:07:16.398Z,15.90
2022-09-28T12:09:32.166Z,15.80
2022-09-28T12:11:50.269Z,15.80
2022-09-28T12:13:59.277Z,15.80
2022-09-28T12:16:38.770Z,15.80
2022-09-28T12:18:27.426Z,15.90
2022-09-28T12:20:52.223Z,15.90
2022-09-28T12:22:59.789Z,15.90
2022-09-28T12:25:03.735Z,15.90
2022-09-28T12:27:21.498Z,15.90
2022-09-28T12:29:29.521Z,16.00
2022-09-28T12:31:54.477Z,16.00
2022-09-28T12:33:56.149Z,16.00
2022-09-28T12:36:30.185Z,16.00
2022-09-28T12:39:08.489Z,16.10
2022-09-28T12:41:42.346Z,16.20
2022-09-28T12:44:04.538Z,16.30
2022-09-28T12:46:36.589Z,16.50
2022-09-28T12:51:48.397Z,16.60
2022-09-28T12:54:16.020Z,16.70
2022-09-28T12:57:02.215Z,16.70
2022-09-28T12:59:23.686Z,16.80
2022-09-28T13:01:28.255Z,16.80
2022-09-28T13:04:17.001Z,16.70
2022-09-28T13:06:51.426Z,16.80
2022-09-28T13:09:16.251Z,16.80
2022-09-28T13:11:47.197Z,16.80
2022-09-28T13:14:29.689Z,16.90
2022-09-28T13:16:43.638Z,16.90
2022-09-28T13:19:01.174Z,16.90
2022-09-28T13:21:19.812Z,16.90
2022-09-28T13:23:37.524Z,16.90
2022-09-28T13:25:45.888Z,16.90
2022-09-28T13:28:03.643Z,16.90
2022-09-28T13:30:08.333Z,16.90
2022-09-28T13:32:15.454Z,17.00
2022-09-28T13:34:22.390Z,17.00
2022-09-28T13:36:32.549Z,17.00
2022-09-28T13:38:47.425Z,17.10
2022-09-28T13:41:04.619Z,17.20
2022-09-28T13:43:19.733Z,17.30
2022-09-28T13:45:21.452Z,17.30
2022-09-28T13:47:51.692Z,17.30
2022-09-28T13:50:14.690Z,17.40
2022-09-28T13:52:35.930Z,17.40
2022-09-28T13:55:23.549Z,17.50
2022-09-28T13:57:43.781Z,17.60
2022-09-28T14:00:11.684Z,17.60
2022-09-28T14:02:40.907Z,17.80
2022-09-28T14:04:57.016Z,17.80
2022-09-28T14:10:08.550Z,18.10
2022-09-28T14:12:34.896Z,18.10
2022-09-28T14:14:53.407Z,18.00
2022-09-28T14:17:30.264Z,18.00
2022-09-28T14:19:33.999Z,17.90
2022-09-28T14:21:57.946Z,17.80
2022-09-28T14:24:12.855Z,17.80
2022-09-28T14:26:41.674Z,17.80
2022-09-28T14:29:09.999Z,17.80
2022-09-28T14:31:26.094Z,17.90
2022-09-28T14:33:31.808Z,17.90
2022-09-28T14:35:45.597Z,17.90
2022-09-28T14:38:08.480Z,17.80
2022-09-28T14:40:56.236Z,17.80
2022-09-28T14:43:35.860Z,17.80
2022-09-28T14:45:38.873Z,17.70
2022-09-28T14:48:06.004Z,17.60
2022-09-28T14:50:27.389Z,17.50
2022-09-28T14:52:51.653Z,17.50
2022-09-28T14:54:57.100Z,17.40
2022-09-28T14:57:16.046Z,17.40
2022-09-28T14:59:35.847Z,17.40
2022-09-28T15:01:38.775Z,17.40
2022-09-28T15:03:42.315Z,17.40
2022-09-28T15:05:49.282Z,17.40
2022-09-28T15:07:52.915Z,17.50
2022-09-28T15:09:58.952Z,17.50
2022-09-28T15:12:01.445Z,17.40
2022-09-28T15:14:11.235Z,17.40
2022-09-28T15:16:15.652Z,17.40
2022-09-28T15:18:29.733Z,17.30
2022-09-28T15:20:38.915Z,17.20
2022-09-28T15:22:49.039Z,17.00
2022-09-28T15:25:01.397Z,17.00
2022-09-28T15:27:15.421Z,16.90
2022-09-28T15:29:19.639Z,16.70
2022-09-28T15:31:26.096Z,16.60
2022-09-28T15:33:51.476Z,16.50
2022-09-28T15:36:01.993Z,16.40
2022-09-28T15:38:04.076Z,16.30
2022-09-28T15:40:12.837Z,16.10
2022-09-28T15:42:20.348Z,16.00
2022-09-28T15:44:35.141Z,15.90
2022-09-28T15:46:47.820Z,15.80
2022-09-28T15:48:59.482Z,15.80
2022-09-28T15:51:14.967Z,15.70
2022-09-28T15:53:18.574Z,15.60
2022-09-28T15:55:34.284Z,15.60
2022-09-28T15:57:41.465Z,15.50
2022-09-28T15:59:44.358Z,15.50
2022-09-28T16:01:47.417Z,15.50
2022-09-28T16:03:51.443Z,15.40
2022-09-28T16:06:07.093Z,15.40
2022-09-28T16:08:22.012Z,15.40
2022-09-28T16:10:30.399Z,15.40
2022-09-28T16:12:58.649Z,15.30
2022-09-28T16:15:12.090Z,15.30
2022-09-28T16:17:37.770Z,15.30
2022-09-28T16:19:41.601Z,15.30
2022-09-28T16:21:49.262Z,15.20
2022-09-28T16:23:57.445Z,15.20
2022-09-28T16:26:05.703Z,15.20
2022-09-28T16:28:23.850Z,15.20
2022-09-28T16:30:35.028Z,15.20
2022-09-28T16:33:06.256Z,15.20
2022-09-28T16:35:23.430Z,15.20
2022-09-28T16:37:32.197Z,15.20
2022-09-28T16:39:34.114Z,15.20
2022-09-28T16:41:40.120Z,15.10
2022-09-28T16:43:41.918Z,15.10
2022-09-28T16:45:43.560Z,15.10
2022-09-28T16:47:47.232Z,15.10
2022-09-28T16:49:50.359Z,14.90
2022-09-28T16:51:53.627Z,14.90
2022-09-28T16:54:25.030Z,15.00
2022-09-28T16:56:27.821Z,15.00
2022-09-28T16:58:34.333Z,15.00
2022-09-28T17:00:38.719Z,15.00
2022-09-28T17:02:46.668Z,15.00
2022-09-28T17:04:48.795Z,15.00
2022-09-28T17:06:53.573Z,15.00
2022-09-28T17:08:56.563Z,15.00
2022-09-28T17:11:24.139Z,14.90
2022-09-28T17:13:33.858Z,14.90
2022-09-28T17:15:37.979Z,14.90
2022-09-28T17:17:40.934Z,14.90
2022-09-28T17:19:42.631Z,14.90
2022-09-28T17:21:44.291Z,14.80
2022-09-28T17:23:47.574Z,14.80
2022-09-28T17:25:49.452Z,14.80
2022-09-28T17:27:53.863Z,14.80
2022-09-28T17:29:55.833Z,14.80
2022-09-28T17:31:59.949Z,14.80
2022-09-28T17:34:01.648Z,14.80
2022-09-28T17:36:05.109Z,14.80
2022-09-28T17:38:09.267Z,14.80
2022-09-28T17:40:21.216Z,14.80
2022-09-28T17:42:23.021Z,14.80
2022-09-28T17:44:24.760Z,14.80
2022-09-28T17:46:32.800Z,14.80
2022-09-28T17:48:35.632Z,14.80
2022-09-28T17:50:37.364Z,14.70
2022-09-28T17:52:39.029Z,14.70
2022-09-28T17:54:40.658Z,14.70
2022-09-28T17:56:43.904Z,14.70
2022-09-28T17:58:48.012Z,14.70
2022-09-28T18:00:51.597Z,14.70
2022-09-28T18:02:58.065Z,14.70
2022-09-28T18:04:59.895Z,14.60
2022-09-28T18:07:01.671Z,14.60
2022-09-28T18:09:04.472Z,14.60
2022-09-28T18:11:08.553Z,14.60
2022-09-28T18:13:18.834Z,14.60
2022-09-28T18:15:27.634Z,14.60
2022-09-28T18:17:29.350Z,14.50
2022-09-28T18:19:34.389Z,14.50
2022-09-28T18:21:39.906Z,14.50
2022-09-28T18:23:42.680Z,14.50
2022-09-28T18:25:45.769Z,14.40
2022-09-28T18:27:50.255Z,14.40
2022-09-28T18:29:51.949Z,14.40
2022-09-28T18:31:53.587Z,14.30
2022-09-28T18:34:05.471Z,14.30
2022-09-28T18:36:08.144Z,14.30
2022-09-28T18:38:09.843Z,14.30
2022-09-28T18:40:13.353Z,14.20
2022-09-28T18:42:15.130Z,14.20
2022-09-28T18:44:19.248Z,14.20
2022-09-28T18:46:21.066Z,14.10
2022-09-28T18:48:27.347Z,14.10
2022-09-28T18:50:29.201Z,14.10
2022-09-28T18:52:30.886Z,14.00
2022-09-28T18:54:34.247Z,14.00
2022-09-28T18:56:37.968Z,14.00
2022-09-28T18:58:41.628Z,13.90
2022-09-28T19:00:43.381Z,13.90
2022-09-28T19:02:45.130Z,13.90
2022-09-28T19:04:48.941Z,13.80
2022-09-28T19:06:52.272Z,13.80
2022-09-28T19:08:55.576Z,13.80
2022-09-28T19:11:07.653Z,13.80
2022-09-28T19:13:09.364Z,13.80
2022-09-28T19:15:14.462Z,13.70
2022-09-28T19:17:18.014Z,13.70
2022-09-28T19:19:20.381Z,13.70
2022-09-28T19:21:22.864Z,13.60
2022-09-28T19:23:26.881Z,13.60
2022-09-28T19:25:28.970Z,13.60
2022-09-28T19:27:30.623Z,13.50
2022-09-28T19:29:32.581Z,13.50
2022-09-28T19:31:34.431Z,13.50
2022-09-28T19:33:37.045Z,13.50
2022-09-28T19:35:39.841Z,13.40
2022-09-28T19:37:42.094Z,13.40
2022-09-28T19:39:46.443Z,13.30
2022-09-28T19:41:51.465Z,13.30
2022-09-28T19:43:53.170Z,13.20
2022-09-28T19:45:55.870Z,13.20
2022-09-28T19:47:59.583Z,13.20
2022-09-28T19:50:01.259Z,13.10
2022-09-28T19:52:13.206Z,13.10
2022-09-28T19:54:18.597Z,13.00
2022-09-28T19:56:21.222Z,13.00
2022-09-28T19:58:26.933Z,13.00
2022-09-28T20:00:28.658Z,12.90
2022-09-28T20:02:30.421Z,12.90
2022-09-28T20:04:32.129Z,12.90
2022-09-28T20:06:34.250Z,12.80
2022-09-28T20:08:40.276Z,12.80
2022-09-28T20:10:52.286Z,12.80
2022-09-28T20:12:53.954Z,12.80
2022-09-28T20:14:55.599Z,12.80
2022-09-28T20:16:57.239Z,12.70
2022-09-28T20:19:03.004Z,12.70
2022-09-28T20:21:09.521Z,12.70
2022-09-28T20:23:13.292Z,12.70
2022-09-28T20:25:15.269Z,12.70
2022-09-28T20:27:22.095Z,12.70
2022-09-28T20:29:31.351Z,12.60
2022-09-28T20:31:37.100Z,12.60
2022-09-28T20:33:39.273Z,12.60
2022-09-28T20:35:41.088Z,12.50
2022-09-28T20:37:45.396Z,12.50
2022-09-28T20:39:47.081Z,12.50
2022-09-28T20:41:49.181Z,12.50
2022-09-28T20:43:53.552Z,12.40
2022-09-28T20:45:56.202Z,12.40
2022-09-28T20:48:04.512Z,12.40
2022-09-28T20:50:07.220Z,12.40
2022-09-28T20:52:10.891Z,12.30
2022-09-28T20:54:14.796Z,12.30
2022-09-28T20:56:23.526Z,12.30
2022-09-28T20:58:25.771Z,12.30
2022-09-28T21:00:27.452Z,12.20
2022-09-28T21:02:31.756Z,12.20
2022-09-28T21:04:33.592Z,12.10
2022-09-28T21:06:37.703Z,12.10
2022-09-28T21:08:39.978Z,12.00
2022-09-28T21:10:44.909Z,12.00
2022-09-28T21:12:51.334Z,12.00
2022-09-28T21:14:55.740Z,11.90
2022-09-28T21:17:00.355Z,11.90
2022-09-28T21:19:02.813Z,11.90
2022-09-28T21:21:14.042Z,11.90
2022-09-28T21:23:24.546Z,11.90
2022-09-28T21:25:28.870Z,11.90
2022-09-28T21:27:30.974Z,11.90
2022-09-28T21:29:32.765Z,11.90
2022-09-28T21:31:48.087Z,11.90
2022-09-28T21:33:52.147Z,11.90
2022-09-28T21:35:54.409Z,11.90
2022-09-28T21:37:56.299Z,11.90
2022-09-28T21:39:59.437Z,11.90
2022-09-28T21:42:01.247Z,11.90
2022-09-28T21:44:03.170Z,11.90
2022-09-28T21:46:04.999Z,11.90
2022-09-28T21:48:06.690Z,11.90
2022-09-28T21:50:08.688Z,11.90
2022-09-28T21:52:10.386Z,11.90
2022-09-28T21:54:12.449Z,12.00
2022-09-28T21:56:14.186Z,12.00
2022-09-28T21:58:22.519Z,12.00
2022-09-28T22:00:24.315Z,12.00
2022-09-28T22:02:25.951Z,12.00
2022-09-28T22:04:27.636Z,12.00
2022-09-28T22:06:29.335Z,12.00
2022-09-28T22:08:34.964Z,12.00
2022-09-28T22:10:36.642Z,12.00
2022-09-28T22:12:42.016Z,12.00
2022-09-28T22:14:43.693Z,12.00
2022-09-28T22:16:45.347Z,12.00
2022-09-28T22:18:47.692Z,12.00
2022-09-28T22:21:08.777Z,12.00
2022-09-28T22:23:13.929Z,12.00
2022-09-28T22:25:18.342Z,12.00
2022-09-28T22:27:23.032Z,12.00
2022-09-28T22:29:26.199Z,12.00
2022-09-28T22:31:33.556Z,12.00
2022-09-28T22:33:39.751Z,12.00
2022-09-28T22:35:41.483Z,12.00
2022-09-28T22:37:43.178Z,12.00
2022-09-28T22:39:44.868Z,11.90
2022-09-28T22:41:48.994Z,11.90
2022-09-28T22:43:54.108Z,11.90
2022-09-28T22:46:16.604Z,11.90
2022-09-28T22:48:20.843Z,11.90
2022-09-28T22:50:22.524Z,11.90
2022-09-28T22:52:24.223Z,11.80
2022-09-28T22:54:26.033Z,11.80
2022-09-28T22:56:28.169Z,11.80
2022-09-28T22:58:29.785Z,11.80
2022-09-28T23:00:31.515Z,11.80
2022-09-28T23:02:33.165Z,11.80
2022-09-28T23:04:35.272Z,11.70
2022-09-28T23:06:36.984Z,11.70
2022-09-28T23:08:39.326Z,11.70
2022-09-28T23:10:44.107Z,11.70
2022-09-28T23:12:45.807Z,11.70
2022-09-28T23:14:49.816Z,11.70
2022-09-28T23:16:54.104Z,11.70
2022-09-28T23:18:58.357Z,11.70
2022-09-28T23:21:05.153Z,11.70
2022-09-28T23:23:06.849Z,11.60
2022-09-28T23:25:08.859Z,11.60
2022-09-28T23:27:11.936Z,11.60
2022-09-28T23:29:13.692Z,11.60
2022-09-28T23:31:27.837Z,11.60
2022-09-28T23:33:29.994Z,11.60
2022-09-28T23:35:33.693Z,11.50
2022-09-28T23:37:35.507Z,11.50
2022-09-28T23:39:37.234Z,11.50
2022-09-28T23:41:39.828Z,11.50
2022-09-28T23:43:41.931Z,11.50
2022-09-28T23:45:44.265Z,11.40
2022-09-28T23:47:46.055Z,11.40
2022-09-28T23:49:50.458Z,11.40
2022-09-28T23:51:52.081Z,11.40
2022-09-28T23:53:53.834Z,11.40
2022-09-28T23:55:55.689Z,11.40
2022-09-28T23:58:00.431Z,11.40
